Aérodrome :
LOGIN :

S'inscrire | Disclaimer

   EN    FR    IT 

 










Légende :    VFR   VFR Marginal   IFR   IFR Intensif   IFR Très Intensif
Visi : 
Plafond : 
>= 8 km
>= 3000ft
5 à 8 km
1000 à 3000 ft
1500m à 5 km
500 à 1000 ft
800 à 1500m
200 à 500 ft
< 800m
< 200 ft
Symboles :   Orages  Brouillard  Fortes neiges  Fortes précipitations  Vent > 20 kt
SIGMETs :   Divers  Orages  Givrage  Turbulence  Onde Orograph.  Cendres Volcan.







- Altitude de l'aérodrome : 863 ft
- Code IATA : ZAZ


LEZG - Zaragoza Aragon

DERNIER METAR :
  • 131930Z 30020KT 9999 -RA SCT040 BKN045 09/06 Q1008

METARs EXPIRÉS :
  • 131900Z 30015KT 9999 SCT040 BKN045 09/06 Q1008
  • 131830Z 30016KT 9999 FEW045 SCT078 BKN088 09/06 Q1007
  • 131800Z 29015KT 260V320 9999 SCT070 BKN089 08/06 Q1007
  • 131730Z 30014KT 9999 SCT070 BKN080 08/07 Q1006
  • 131700Z 31018KT 9999 SCT070 BKN080 09/07 Q1006

TAF TAF LEZG
Valide du 13 à 18h jusqu'au 14 à 18h UTC


131700Z 1318/1418 30012KT 9999 BKN030 TX13/1414Z TN05/1406Z
TEMPO 1318/1320 4000 RA BKN030
TEMPO 1320/1402 30020G30KT
TEMPO 1412/1414 30020G30KT
Pas de NOTAMs connus pour ce terrain.
1 SIGMET publié pour la FIR Madrid (LECM) :
 
Turbulence forte
LECM SIGMET 7 VALID 131600/132000 LEVA
LECM MADRID FIR/UIR SEV TURB FCST E OF LINE N4435 W00645 - N3548 W00530 SFC/FL300 MOV E NC=



MET'MAP, la Météo Aéronautique d'un coup d'oeil ! - Copyright ORBIFLY Décembre 2007 - Disclaimer

ORBIFLY MET'MAP TEAM :

Programmation & Développement : Alexandra Zaïnal
Conception & Développement : Baudouin d'Aumeries
Co-Programmation & Développement : Marc-Olivier Méhu
Soutien technique & logistique : Manuel Goepfert

Contact : metmap@orbifly.com




SOURCES & CREDITS :

   NOAA